createdAt,value
2022-12-11T00:00:55.402Z,18.08
2022-12-11T00:03:41.767Z,17.80
2022-12-11T00:06:12.784Z,17.98
2022-12-11T00:08:40.830Z,18.70
2022-12-11T00:11:16.774Z,19.63
2022-12-11T00:13:44.888Z,18.77
2022-12-11T00:16:12.635Z,17.13
2022-12-11T00:18:40.769Z,17.58
2022-12-11T00:21:13.119Z,15.87
2022-12-11T00:23:41.812Z,16.48
2022-12-11T00:26:14.701Z,16.92
2022-12-11T00:28:44.603Z,17.15
2022-12-11T00:31:18.700Z,17.87
2022-12-11T00:33:49.199Z,15.47
2022-12-11T00:36:24.336Z,16.58
2022-12-11T00:38:53.231Z,16.45
2022-12-11T00:41:21.654Z,15.63
2022-12-11T00:43:49.276Z,14.02
2022-12-11T00:46:16.614Z,15.52
2022-12-11T00:48:44.210Z,14.65
2022-12-11T00:51:11.530Z,14.63
2022-12-11T00:53:39.754Z,13.13
2022-12-11T00:56:16.799Z,13.57
2022-12-11T00:58:46.093Z,14.02
2022-12-11T01:01:22.319Z,14.38
2022-12-11T01:03:51.643Z,14.50
2022-12-11T01:06:23.882Z,14.70
2022-12-11T01:09:10.846Z,13.45
2022-12-11T01:11:38.637Z,15.82
2022-12-11T01:14:06.806Z,15.07
2022-12-11T01:16:34.337Z,15.05
2022-12-11T01:19:01.916Z,13.27
2022-12-11T01:21:29.790Z,13.68
2022-12-11T01:23:57.316Z,13.73
2022-12-11T01:26:24.628Z,13.38
2022-12-11T01:28:52.811Z,13.57
2022-12-11T01:31:22.349Z,15.30
2022-12-11T01:33:49.987Z,14.52
2022-12-11T01:36:21.268Z,15.30
2022-12-11T01:38:49.949Z,14.95
2022-12-11T01:41:21.405Z,16.05
2022-12-11T01:44:15.758Z,15.50
2022-12-11T01:46:43.907Z,13.55
2022-12-11T01:49:17.533Z,14.20
2022-12-11T01:52:25.447Z,15.13
2022-12-11T01:54:53.072Z,15.60
2022-12-11T01:57:20.436Z,15.27
2022-12-11T01:59:48.229Z,14.50
2022-12-11T02:02:30.227Z,15.15
2022-12-11T02:04:58.049Z,16.30
2022-12-11T02:07:25.373Z,16.02
2022-12-11T02:09:53.102Z,15.85
2022-12-11T02:12:37.603Z,15.25
2022-12-11T02:15:32.625Z,15.23
2022-12-11T02:18:27.832Z,15.00
2022-12-11T02:21:18.616Z,14.60
2022-12-11T02:24:19.801Z,15.38
2022-12-11T02:27:14.889Z,15.73
2022-12-11T02:30:04.407Z,15.60
2022-12-11T02:32:52.158Z,16.27
2022-12-11T02:35:24.469Z,16.02
2022-12-11T02:38:01.961Z,18.20
2022-12-11T02:40:35.415Z,17.98
2022-12-11T02:43:09.059Z,17.15
2022-12-11T02:45:38.412Z,18.98
2022-12-11T02:48:10.033Z,17.20
2022-12-11T02:50:45.181Z,16.42
2022-12-11T02:53:18.760Z,17.65
2022-12-11T02:55:50.046Z,20.05
2022-12-11T02:58:31.422Z,20.08
2022-12-11T03:00:58.877Z,19.67
2022-12-11T03:03:29.498Z,16.83
2022-12-11T03:05:57.255Z,15.43
2022-12-11T03:08:24.935Z,16.42
2022-12-11T03:10:52.220Z,16.33
2022-12-11T03:13:22.811Z,15.93
2022-12-11T03:16:34.734Z,16.88
2022-12-11T03:19:16.563Z,14.98
2022-12-11T03:22:12.345Z,16.15
2022-12-11T03:25:02.843Z,14.82
2022-12-11T03:27:35.783Z,16.40
2022-12-11T03:30:11.706Z,14.27
2022-12-11T03:32:50.406Z,16.58
2022-12-11T03:35:25.709Z,18.25
2022-12-11T03:37:57.513Z,18.42
2022-12-11T03:40:27.947Z,19.67
2022-12-11T03:42:58.675Z,19.02
2022-12-11T03:45:29.862Z,18.92
2022-12-11T03:48:02.178Z,20.80
2022-12-11T03:50:34.806Z,20.50
2022-12-11T03:53:04.827Z,19.88
2022-12-11T03:55:36.326Z,21.00
2022-12-11T03:58:03.707Z,20.35
2022-12-11T04:00:31.698Z,20.45
2022-12-11T04:03:14.827Z,21.02
2022-12-11T04:05:49.658Z,22.33
2022-12-11T04:08:18.965Z,20.88
2022-12-11T04:10:47.362Z,22.13
2022-12-11T04:13:14.861Z,21.77
2022-12-11T04:15:42.430Z,20.92
2022-12-11T04:18:28.983Z,21.60
2022-12-11T04:21:15.770Z,21.55
2022-12-11T04:24:01.526Z,21.55
2022-12-11T04:26:29.123Z,19.77
2022-12-11T04:28:56.420Z,20.10
2022-12-11T04:31:24.207Z,22.25
2022-12-11T04:33:51.569Z,19.50
2022-12-11T04:36:19.145Z,20.83
2022-12-11T04:38:46.351Z,20.23
2022-12-11T04:41:16.297Z,20.13
2022-12-11T04:43:47.231Z,28.85
2022-12-11T04:46:19.660Z,29.60
2022-12-11T04:48:51.202Z,27.92
2022-12-11T04:51:21.489Z,33.40
2022-12-11T04:53:48.751Z,36.08
2022-12-11T04:56:17.279Z,26.77
2022-12-11T04:58:47.265Z,27.73
2022-12-11T05:01:22.660Z,21.95
2022-12-11T05:03:50.605Z,19.48
2022-12-11T05:06:18.204Z,17.60
2022-12-11T05:08:45.898Z,19.53
2022-12-11T05:11:15.931Z,19.23
2022-12-11T05:13:44.281Z,20.95
2022-12-11T05:16:16.096Z,23.98
2022-12-11T05:18:43.946Z,20.35
2022-12-11T05:21:15.061Z,21.45
2022-12-11T05:23:42.847Z,21.50
2022-12-11T05:26:19.265Z,22.25
2022-12-11T05:28:50.944Z,22.40
2022-12-11T05:31:22.391Z,22.10
2022-12-11T05:33:50.885Z,23.23
2022-12-11T05:36:23.948Z,26.35
2022-12-11T05:38:52.887Z,25.80
2022-12-11T05:41:23.939Z,19.85
2022-12-11T05:43:51.361Z,21.55
2022-12-11T05:46:24.825Z,20.90
2022-12-11T05:48:58.112Z,18.73
2022-12-11T05:51:27.021Z,17.10
2022-12-11T05:53:56.253Z,18.27
2022-12-11T05:56:31.743Z,17.48
2022-12-11T05:59:01.476Z,17.25
2022-12-11T06:01:35.260Z,16.67
2022-12-11T06:04:04.295Z,17.55
2022-12-11T06:06:31.970Z,17.45
2022-12-11T06:09:00.855Z,15.98
2022-12-11T06:11:32.031Z,14.57
2022-12-11T06:14:01.440Z,16.83
2022-12-11T06:16:29.037Z,15.50
2022-12-11T06:18:58.424Z,20.45
2022-12-11T06:21:33.854Z,19.00
2022-12-11T06:24:04.177Z,23.60
2022-12-11T06:26:32.289Z,17.03
2022-12-11T06:28:59.801Z,21.35
2022-12-11T06:31:27.719Z,17.98
2022-12-11T06:33:55.602Z,17.90
2022-12-11T06:36:25.226Z,18.63
2022-12-11T06:38:53.175Z,18.30
2022-12-11T06:41:20.666Z,17.10
2022-12-11T06:43:47.937Z,18.42
2022-12-11T06:46:19.773Z,23.27
2022-12-11T06:48:50.652Z,18.85
2022-12-11T06:51:22.717Z,18.95
2022-12-11T06:53:55.269Z,19.88
2022-12-11T06:56:24.316Z,19.75
2022-12-11T06:58:52.414Z,18.65
2022-12-11T07:01:24.530Z,18.48
2022-12-11T07:04:00.273Z,17.15
2022-12-11T07:06:29.064Z,19.08
2022-12-11T07:08:57.223Z,19.23
2022-12-11T07:11:24.800Z,19.40
2022-12-11T07:13:52.335Z,19.73
2022-12-11T07:16:20.183Z,19.53
2022-12-11T07:18:50.919Z,19.13
2022-12-11T07:21:20.832Z,20.00
2022-12-11T07:23:49.700Z,19.47
2022-12-11T07:26:20.582Z,17.30
2022-12-11T07:28:49.016Z,15.95
2022-12-11T07:31:23.805Z,14.53
2022-12-11T07:33:57.158Z,14.40
2022-12-11T07:36:25.689Z,14.20
2022-12-11T07:38:53.669Z,14.17
2022-12-11T07:41:22.439Z,14.60
2022-12-11T07:43:49.712Z,14.63
2022-12-11T07:46:21.931Z,15.80
2022-12-11T07:48:49.832Z,16.50
2022-12-11T07:51:26.627Z,14.53
2022-12-11T07:54:04.965Z,14.30
2022-12-11T07:56:33.425Z,14.53
2022-12-11T07:59:03.556Z,16.77
2022-12-11T08:01:35.741Z,16.03
2022-12-11T08:04:05.458Z,15.47
2022-12-11T08:06:36.333Z,15.60
2022-12-11T08:09:07.785Z,16.65
2022-12-11T08:11:36.217Z,18.23
2022-12-11T08:14:05.414Z,17.00
2022-12-11T08:16:33.492Z,18.67
2022-12-11T08:19:00.960Z,19.70
2022-12-11T08:21:29.483Z,18.37
2022-12-11T08:23:56.847Z,20.50
2022-12-11T08:26:31.555Z,18.77
2022-12-11T08:29:00.945Z,17.93
2022-12-11T08:31:29.889Z,16.57
2022-12-11T08:33:57.890Z,18.00
2022-12-11T08:36:26.188Z,20.45
2022-12-11T08:38:56.473Z,19.47
2022-12-11T08:41:28.569Z,19.43
2022-12-11T08:43:57.700Z,19.03
2022-12-11T08:46:29.541Z,19.70
2022-12-11T08:48:57.951Z,23.17
2022-12-11T08:51:28.414Z,21.93
2022-12-11T08:53:59.421Z,20.67
2022-12-11T08:56:28.646Z,20.67
2022-12-11T08:58:56.263Z,20.50
2022-12-11T09:01:26.805Z,20.73
2022-12-11T09:03:56.803Z,17.80
2022-12-11T09:06:28.234Z,18.67
2022-12-11T09:08:58.683Z,18.23
2022-12-11T09:11:30.784Z,19.20
2022-12-11T09:14:02.238Z,20.23
2022-12-11T09:16:37.920Z,18.80
2022-12-11T09:19:08.602Z,17.60
2022-12-11T09:21:36.299Z,18.03
2022-12-11T09:24:03.940Z,18.58
2022-12-11T09:26:31.762Z,18.40
2022-12-11T09:28:59.284Z,16.70
2022-12-11T09:31:33.701Z,16.05
2022-12-11T09:34:08.557Z,16.03
2022-12-11T09:36:38.930Z,17.87
2022-12-11T09:39:09.079Z,18.42
2022-12-11T09:42:22.620Z,18.97
2022-12-11T09:44:59.711Z,19.50
2022-12-11T09:47:45.726Z,22.67
2022-12-11T09:50:48.097Z,20.73
2022-12-11T09:53:34.088Z,21.30
2022-12-11T09:56:33.733Z,21.53
2022-12-11T09:59:17.086Z,19.83
2022-12-11T10:02:11.601Z,17.23
2022-12-11T10:05:18.904Z,16.27
2022-12-11T10:08:23.874Z,16.47
2022-12-11T10:10:57.225Z,15.38
2022-12-11T10:13:42.520Z,14.43
2022-12-11T10:16:37.615Z,16.38
2022-12-11T10:19:05.996Z,17.90
2022-12-11T10:21:41.906Z,19.75
2022-12-11T10:27:38.655Z,21.77
2022-12-11T10:30:15.955Z,21.77
2022-12-11T10:33:06.917Z,19.50
2022-12-11T10:35:49.845Z,22.25
2022-12-11T10:38:23.004Z,24.73
2022-12-11T10:41:00.717Z,25.40
2022-12-11T10:43:39.936Z,24.17
2022-12-11T10:46:21.190Z,23.75
2022-12-11T10:48:57.769Z,26.10
2022-12-11T10:51:36.541Z,23.15
2022-12-11T10:54:27.737Z,24.20
2022-12-11T10:56:56.445Z,25.17
2022-12-11T10:59:48.122Z,23.88
2022-12-11T11:02:40.443Z,24.15
2022-12-11T11:05:17.165Z,29.67
2022-12-11T11:07:44.558Z,27.63
2022-12-11T11:10:12.127Z,25.50
2022-12-11T11:12:50.612Z,30.55
2022-12-11T11:15:29.082Z,27.93
2022-12-11T11:18:25.187Z,28.60
2022-12-11T11:20:53.683Z,24.87
2022-12-11T11:23:23.025Z,30.05
2022-12-11T11:26:11.819Z,29.75
2022-12-11T11:28:51.223Z,27.85
2022-12-11T11:31:23.130Z,34.85
2022-12-11T11:33:58.897Z,32.27
2022-12-11T11:36:33.996Z,29.70
2022-12-11T11:39:25.997Z,32.45
2022-12-11T11:42:15.218Z,27.58
2022-12-11T11:45:16.982Z,19.92
2022-12-11T11:48:28.685Z,22.58
2022-12-11T11:50:58.420Z,22.03
2022-12-11T11:53:40.702Z,24.75
2022-12-11T11:56:26.897Z,23.15
2022-12-11T11:59:03.264Z,22.02
2022-12-11T12:01:31.447Z,24.87
2022-12-11T12:04:01.522Z,24.38
2022-12-11T12:07:23.528Z,24.45
2022-12-11T12:10:15.622Z,23.50
2022-12-11T12:13:30.051Z,26.00
2022-12-11T12:16:02.061Z,25.70
2022-12-11T12:18:59.757Z,23.90
2022-12-11T12:21:39.075Z,21.77
2022-12-11T12:24:41.344Z,24.43
2022-12-11T12:27:55.785Z,23.20
2022-12-11T12:30:23.996Z,24.67
2022-12-11T12:33:38.465Z,26.20
2022-12-11T12:36:20.946Z,24.87
2022-12-11T12:38:54.022Z,23.00
2022-12-11T12:42:05.651Z,24.40
2022-12-11T12:45:01.675Z,25.27
2022-12-11T12:47:34.126Z,24.23
2022-12-11T12:50:10.388Z,24.83
2022-12-11T12:52:40.928Z,22.60
2022-12-11T12:55:26.068Z,23.77
2022-12-11T12:58:01.464Z,24.63
2022-12-11T13:00:49.265Z,22.27
2022-12-11T13:03:30.437Z,20.97
2022-12-11T13:06:03.523Z,21.03
2022-12-11T13:08:50.434Z,21.35
2022-12-11T13:11:21.454Z,20.43
2022-12-11T13:14:27.276Z,24.10
2022-12-11T13:17:21.398Z,24.90
2022-12-11T13:19:53.107Z,23.00
2022-12-11T13:22:24.905Z,25.13
2022-12-11T13:24:52.091Z,25.90
2022-12-11T13:27:40.254Z,24.38
2022-12-11T13:30:22.532Z,24.33
2022-12-11T13:33:07.788Z,25.20
2022-12-11T13:35:35.904Z,26.77
2022-12-11T13:38:20.857Z,25.30
2022-12-11T13:40:55.821Z,21.97
2022-12-11T13:43:28.690Z,21.83
2022-12-11T13:46:02.959Z,21.83
2022-12-11T13:49:22.188Z,25.17
2022-12-11T13:52:01.290Z,27.17
2022-12-11T13:54:31.889Z,26.57
2022-12-11T13:57:18.045Z,25.00
2022-12-11T13:59:53.421Z,22.37
2022-12-11T14:02:39.922Z,25.40
2022-12-11T14:05:11.590Z,23.40
2022-12-11T14:07:46.710Z,26.53
2022-12-11T14:10:20.917Z,24.23
2022-12-11T14:13:05.879Z,24.30
2022-12-11T14:15:36.360Z,24.43
2022-12-11T14:18:05.652Z,23.83
2022-12-11T14:20:34.591Z,23.70
2022-12-11T14:23:18.302Z,23.47
2022-12-11T14:26:17.390Z,22.70
2022-12-11T14:28:45.266Z,23.57
2022-12-11T14:31:41.097Z,22.87
2022-12-11T14:34:45.475Z,25.57
2022-12-11T14:37:17.623Z,26.17
2022-12-11T14:40:17.585Z,35.60
2022-12-11T14:43:00.344Z,28.93
2022-12-11T14:45:45.216Z,32.27
2022-12-11T14:48:34.674Z,33.20
2022-12-11T14:51:10.876Z,37.83
2022-12-11T14:53:46.250Z,28.50
2022-12-11T14:56:27.840Z,23.27
2022-12-11T14:59:31.450Z,23.80
2022-12-11T15:02:04.701Z,27.67
2022-12-11T15:04:33.573Z,31.23
2022-12-11T15:07:01.088Z,39.73
2022-12-11T15:09:38.602Z,34.90
2022-12-11T15:12:16.832Z,39.20
2022-12-11T15:14:52.227Z,42.30
2022-12-11T15:17:21.327Z,38.07
2022-12-11T15:20:23.723Z,30.90
2022-12-11T15:22:51.716Z,33.97
2022-12-11T15:25:30.635Z,28.70
2022-12-11T15:28:01.225Z,25.27
2022-12-11T15:30:35.182Z,25.77
2022-12-11T15:33:11.240Z,24.30
2022-12-11T15:35:52.365Z,22.97
2022-12-11T15:38:34.436Z,23.40
2022-12-11T15:41:04.373Z,22.80
2022-12-11T15:43:36.448Z,24.67
2022-12-11T15:46:06.104Z,24.63
2022-12-11T15:48:34.248Z,24.03
2022-12-11T15:51:01.787Z,29.37
2022-12-11T15:53:29.186Z,27.87
2022-12-11T15:55:59.628Z,29.40
2022-12-11T15:58:27.504Z,25.27
2022-12-11T16:00:55.695Z,26.37
2022-12-11T16:03:24.373Z,25.53
2022-12-11T16:05:53.695Z,25.53
2022-12-11T16:08:24.570Z,24.67
2022-12-11T16:10:54.901Z,23.77
2022-12-11T16:13:23.352Z,22.47
2022-12-11T16:15:52.256Z,25.50
2022-12-11T16:18:23.677Z,23.57
2022-12-11T16:20:52.521Z,24.07
2022-12-11T16:23:20.818Z,24.03
2022-12-11T16:25:49.441Z,23.03
2022-12-11T16:28:20.947Z,23.97
2022-12-11T16:30:49.722Z,23.40
2022-12-11T16:33:17.452Z,24.13
2022-12-11T16:35:45.670Z,23.70
2022-12-11T16:38:13.637Z,23.37
2022-12-11T16:40:41.656Z,23.50
2022-12-11T16:43:08.843Z,23.83
2022-12-11T16:45:37.470Z,22.60
2022-12-11T16:48:05.768Z,22.83
2022-12-11T16:50:33.332Z,24.67
2022-12-11T16:53:00.590Z,24.93
2022-12-11T16:55:28.108Z,25.80
2022-12-11T16:57:55.372Z,28.20
2022-12-11T17:00:22.955Z,24.60
2022-12-11T17:02:50.911Z,24.17
2022-12-11T17:05:18.717Z,23.53
2022-12-11T17:07:45.980Z,24.97
2022-12-11T17:10:13.611Z,24.53
2022-12-11T17:12:40.875Z,27.07
2022-12-11T17:15:09.056Z,26.20
2022-12-11T17:17:36.473Z,25.63
2022-12-11T17:20:06.406Z,24.67
2022-12-11T17:22:33.624Z,24.97
2022-12-11T17:25:01.177Z,26.23
2022-12-11T17:27:28.381Z,27.70
2022-12-11T17:29:55.941Z,28.90
2022-12-11T17:32:23.221Z,31.30
2022-12-11T17:34:50.963Z,29.93
2022-12-11T17:37:18.871Z,31.07
2022-12-11T17:39:47.611Z,32.83
2022-12-11T17:42:14.895Z,30.03
2022-12-11T17:44:42.484Z,31.13
2022-12-11T17:47:12.044Z,33.07
2022-12-11T17:49:40.529Z,36.20
2022-12-11T17:52:08.341Z,34.80
2022-12-11T17:54:35.879Z,32.00
2022-12-11T17:57:03.281Z,31.27
2022-12-11T17:59:30.851Z,30.47
2022-12-11T18:01:58.196Z,28.37
2022-12-11T18:04:26.045Z,27.33
2022-12-11T18:06:53.341Z,25.87
2022-12-11T18:09:20.822Z,26.57
2022-12-11T18:11:48.348Z,26.43
2022-12-11T18:14:17.627Z,26.73
2022-12-11T18:16:45.158Z,25.00
2022-12-11T18:19:13.917Z,27.70
2022-12-11T18:21:44.216Z,28.70
2022-12-11T18:24:12.301Z,31.70
2022-12-11T18:26:39.551Z,27.27
2022-12-11T18:29:07.065Z,31.37
2022-12-11T18:31:37.559Z,29.17
2022-12-11T18:34:10.821Z,32.63
2022-12-11T18:36:38.334Z,30.63
2022-12-11T18:39:05.893Z,25.63
2022-12-11T18:41:33.164Z,26.67
2022-12-11T18:44:08.009Z,33.93
2022-12-11T18:46:37.631Z,29.87
2022-12-11T18:49:06.471Z,26.03
2022-12-11T18:51:34.214Z,24.90
2022-12-11T18:54:01.782Z,25.03
2022-12-11T18:56:29.070Z,24.27
2022-12-11T18:58:56.615Z,25.17
2022-12-11T19:01:29.088Z,23.40
2022-12-11T19:04:04.161Z,23.00
2022-12-11T19:06:35.496Z,23.10
2022-12-11T19:09:05.793Z,27.07
2022-12-11T19:11:34.987Z,25.00
2022-12-11T19:14:05.645Z,24.27
2022-12-11T19:16:40.964Z,22.43
2022-12-11T19:19:16.807Z,22.67
2022-12-11T19:21:45.225Z,24.03
2022-12-11T19:24:17.233Z,23.00
2022-12-11T19:26:44.963Z,22.37
2022-12-11T19:29:28.755Z,22.97
2022-12-11T19:31:56.480Z,22.07
2022-12-11T19:34:25.047Z,23.40
2022-12-11T19:36:52.359Z,22.47
2022-12-11T19:39:20.504Z,24.50
2022-12-11T19:41:49.081Z,26.00
2022-12-11T19:44:16.549Z,21.77
2022-12-11T19:46:43.923Z,23.07
2022-12-11T19:49:12.427Z,23.93
2022-12-11T19:51:41.919Z,21.37
2022-12-11T19:54:15.017Z,20.90
2022-12-11T19:56:43.062Z,23.03
2022-12-11T19:59:16.706Z,21.83
2022-12-11T20:01:48.256Z,21.03
2022-12-11T20:04:17.836Z,21.57
2022-12-11T20:06:47.306Z,22.23
2022-12-11T20:09:15.827Z,23.93
2022-12-11T20:11:45.624Z,25.10
2022-12-11T20:14:24.403Z,25.20
2022-12-11T20:19:41.721Z,24.30
2022-12-11T20:22:09.618Z,22.37
2022-12-11T20:24:37.603Z,22.77
2022-12-11T20:27:05.798Z,24.13
2022-12-11T20:29:33.476Z,25.60
2022-12-11T20:32:00.754Z,23.97
2022-12-11T20:34:28.482Z,20.77
2022-12-11T20:36:56.432Z,23.23
2022-12-11T20:39:25.290Z,21.00
2022-12-11T20:41:52.521Z,19.90
2022-12-11T20:44:20.260Z,20.33
2022-12-11T20:46:47.783Z,23.43
2022-12-11T20:49:15.634Z,21.83
2022-12-11T20:51:42.968Z,20.43
2022-12-11T20:54:10.529Z,20.77
2022-12-11T20:56:38.578Z,20.50
2022-12-11T20:59:06.931Z,22.40
2022-12-11T21:01:35.139Z,22.03
2022-12-11T21:04:03.218Z,19.97
2022-12-11T21:06:36.587Z,22.60
2022-12-11T21:09:14.494Z,21.70
2022-12-11T21:11:42.052Z,22.93
2022-12-11T21:14:09.898Z,23.47
2022-12-11T21:16:38.247Z,25.27
2022-12-11T21:19:06.904Z,25.63
2022-12-11T21:21:39.831Z,24.10
2022-12-11T21:24:14.436Z,26.73
2022-12-11T21:26:41.746Z,24.77
2022-12-11T21:29:09.337Z,24.23
2022-12-11T21:31:37.787Z,24.20
2022-12-11T21:34:06.424Z,23.33
2022-12-11T21:36:34.573Z,22.47
2022-12-11T21:39:04.451Z,21.60
2022-12-11T21:41:31.970Z,21.40
2022-12-11T21:45:26.033Z,20.43
2022-12-11T21:46:47.593Z,20.60
2022-12-11T21:49:15.202Z,21.23
2022-12-11T21:51:46.903Z,22.60
2022-12-11T21:54:18.883Z,23.07
2022-12-11T21:56:47.337Z,24.93
2022-12-11T21:59:15.047Z,23.97
2022-12-11T22:01:46.269Z,23.73
2022-12-11T22:04:15.550Z,22.10
2022-12-11T22:06:43.737Z,22.70
2022-12-11T22:09:13.045Z,25.33
2022-12-11T22:11:42.437Z,24.93
2022-12-11T22:14:17.071Z,22.40
2022-12-11T22:16:45.215Z,23.40
2022-12-11T22:19:13.602Z,24.10
2022-12-11T22:21:41.015Z,24.50
2022-12-11T22:24:09.088Z,24.00
2022-12-11T22:26:36.408Z,21.10
2022-12-11T22:29:03.955Z,21.67
2022-12-11T22:31:31.568Z,20.93
2022-12-11T22:33:59.152Z,20.17
2022-12-11T22:36:27.359Z,20.13
2022-12-11T22:38:55.417Z,19.30
2022-12-11T22:41:32.018Z,21.93
2022-12-11T22:44:00.232Z,19.80
2022-12-11T22:46:31.008Z,22.20
2022-12-11T22:48:59.613Z,20.43
2022-12-11T22:51:26.829Z,19.43
2022-12-11T22:53:54.320Z,19.83
2022-12-11T22:56:21.737Z,18.40
2022-12-11T22:58:49.242Z,18.90
2022-12-11T23:01:23.256Z,20.97
2022-12-11T23:03:51.616Z,19.13
2022-12-11T23:06:22.690Z,19.03
2022-12-11T23:08:50.388Z,20.17
2022-12-11T23:11:26.371Z,20.07
2022-12-11T23:13:55.483Z,20.47
2022-12-11T23:16:26.287Z,22.63
2022-12-11T23:18:55.983Z,20.77
2022-12-11T23:21:23.791Z,22.53
2022-12-11T23:23:51.434Z,22.30
2022-12-11T23:26:20.763Z,21.93
2022-12-11T23:28:49.441Z,22.63
2022-12-11T23:31:18.178Z,22.47
2022-12-11T23:33:46.003Z,22.53
2022-12-11T23:36:13.715Z,22.70
2022-12-11T23:38:41.547Z,24.73
2022-12-11T23:41:12.671Z,24.67
2022-12-11T23:43:41.903Z,22.70
2022-12-11T23:46:16.611Z,23.87
2022-12-11T23:48:44.867Z,22.97
2022-12-11T23:51:16.070Z,21.97
2022-12-11T23:53:44.279Z,21.80
2022-12-11T23:56:23.680Z,22.13
2022-12-11T23:58:52.896Z,21.37
